Time;durP1;ratioP1;P1;durP2;ratioP2;P2;SDS_P1;SDS_P2;PMS_P1;PMS_P2;Temp;Humidity;BMP_temperature;BMP_pressure;BME280_temperature;BME280_humidity;BME280_pressure;Samples;Min_cycle;Max_cycle;Signal;HPM_P1;HPM_P2
2022/03/02 00:01:04;;;;;;;15.33;13.53;;;-1.50;99.90;;;-0.83;68.41;98767.66;5200313;28;20218;-60
2022/03/02 00:03:39;;;;;;;15.70;14.10;;;-1.50;99.90;;;-0.91;67.76;98761.78;5204129;28;20653;-60
2022/03/02 00:06:12;;;;;;;15.40;13.87;;;-1.60;99.90;;;-0.96;68.57;98758.72;5202852;28;20247;-59
2022/03/02 00:08:45;;;;;;;18.20;15.40;;;-1.70;99.90;;;-0.92;67.85;98757.47;5202213;28;20700;-60
2022/03/02 00:11:18;;;;;;;16.33;14.63;;;-1.60;99.90;;;-0.91;67.78;98757.66;5202718;28;20288;-59
2022/03/02 00:13:52;;;;;;;19.47;15.90;;;-1.60;99.90;;;-0.89;69.22;98759.44;5202111;28;20198;-60
2022/03/02 00:16:28;;;;;;;16.07;14.33;;;-1.60;99.90;;;-0.82;67.20;98759.44;5200130;28;20580;-60
2022/03/02 00:19:03;;;;;;;16.70;15.10;;;-1.60;99.90;;;-0.90;68.98;98763.56;5201652;28;20228;-59
2022/03/02 00:21:36;;;;;;;17.60;15.57;;;-1.60;99.90;;;-0.94;69.08;98762.31;5200232;28;20220;-58
2022/03/02 00:24:09;;;;;;;16.57;14.73;;;-1.60;99.90;;;-0.95;69.01;98772.16;5202859;28;20205;-59
2022/03/02 00:26:43;;;;;;;17.13;15.33;;;-1.70;99.90;;;-0.94;68.46;98767.34;5200268;28;20225;-57
2022/03/02 00:29:16;;;;;;;16.13;14.43;;;-1.70;99.90;;;-0.89;69.65;98764.44;5197532;28;20228;-59
2022/03/02 00:31:51;;;;;;;16.77;14.33;;;-1.60;99.90;;;-0.86;70.14;98772.34;5201704;28;20209;-58
2022/03/02 00:34:24;;;;;;;16.10;14.37;;;-1.60;99.90;;;-0.95;71.04;98758.00;5202152;28;20653;-60
2022/03/02 00:36:57;;;;;;;15.17;13.33;;;-1.60;99.90;;;-0.93;70.79;98769.13;5200203;28;20194;-60
2022/03/02 00:39:30;;;;;;;15.83;14.23;;;-1.60;99.90;;;-0.93;70.17;98771.63;5200643;28;20295;-60
2022/03/02 00:42:06;;;;;;;15.73;14.13;;;-1.70;99.90;;;-0.89;69.82;98771.97;5201191;28;20213;-60
2022/03/02 00:44:39;;;;;;;15.20;13.63;;;-1.60;99.90;;;-0.88;69.71;98773.78;5201925;28;20288;-58
2022/03/02 00:47:14;;;;;;;15.37;13.77;;;-1.60;99.90;;;-0.82;69.22;98764.47;5203695;28;20214;-60
2022/03/02 00:49:48;;;;;;;15.60;13.90;;;-1.60;99.90;;;-0.67;69.25;98746.13;5206589;28;20198;-60
2022/03/02 00:52:23;;;;;;;15.33;13.73;;;-1.70;99.90;;;-0.72;69.40;98739.69;5204387;28;20194;-58
2022/03/02 00:54:56;;;;;;;14.37;12.97;;;-1.80;99.90;;;-0.99;70.14;98730.78;5205274;28;20201;-58
2022/03/02 00:57:29;;;;;;;14.80;13.07;;;-1.90;99.90;;;-1.15;70.93;98722.19;5204177;28;20229;-60
2022/03/02 01:00:02;;;;;;;14.73;13.13;;;-2.00;99.90;;;-1.22;70.32;98718.09;5204746;28;20202;-60
2022/03/02 01:02:37;;;;;;;16.00;14.40;;;-2.00;99.90;;;-1.26;69.63;98718.47;5200589;28;20206;-60
2022/03/02 01:05:11;;;;;;;16.53;13.50;;;-2.00;99.90;;;-1.17;71.38;98716.13;5203826;28;20194;-58
2022/03/02 01:07:45;;;;;;;14.57;12.90;;;-1.90;99.90;;;-1.13;71.30;98718.28;5202181;28;20235;-59
2022/03/02 01:10:19;;;;;;;16.60;14.83;;;-1.80;99.90;;;-1.09;71.69;98712.88;5205555;28;20719;-60
2022/03/02 01:12:52;;;;;;;15.60;14.00;;;-1.80;99.90;;;-1.17;70.30;98723.66;5205341;28;20561;-58
2022/03/02 01:15:26;;;;;;;17.03;14.03;;;-1.90;99.90;;;-1.05;71.74;98720.06;5204967;28;20236;-60
2022/03/02 01:18:01;;;;;;;14.43;12.97;;;-1.80;99.90;;;-1.00;70.65;98729.00;5204364;28;20218;-58
2022/03/02 01:20:34;;;;;;;14.97;12.80;;;-1.80;99.90;;;-0.92;72.08;98718.25;5203248;28;20665;-59
2022/03/02 01:23:07;;;;;;;14.67;13.17;;;-1.80;99.90;;;-0.96;72.36;98717.72;5203515;28;20200;-60
2022/03/02 01:25:40;;;;;;;15.00;13.10;;;-1.70;99.90;;;-1.05;73.29;98712.53;5203262;28;20452;-59
2022/03/02 01:28:13;;;;;;;14.97;13.47;;;-1.90;99.90;;;-1.09;71.84;98711.97;5203596;28;20226;-60
2022/03/02 01:30:46;;;;;;;15.13;13.53;;;-1.90;99.90;;;-1.07;72.99;98713.97;5204500;28;20206;-59
2022/03/02 01:33:21;;;;;;;15.33;13.87;;;-1.90;99.90;;;-1.12;72.36;98710.00;5203631;28;20194;-60
2022/03/02 01:35:54;;;;;;;13.70;12.30;;;-1.90;99.90;;;-1.06;71.02;98714.84;5203159;28;20206;-60
2022/03/02 01:38:27;;;;;;;13.93;12.53;;;-1.90;99.90;;;-1.18;72.71;98712.72;5201686;28;20217;-59
2022/03/02 01:41:00;;;;;;;13.53;12.13;;;-2.00;99.90;;;-1.22;73.09;98722.22;5203893;28;20198;-59
2022/03/02 01:43:33;;;;;;;13.43;12.03;;;-2.00;99.90;;;-1.15;71.69;98724.72;5203783;28;20561;-60
2022/03/02 01:46:06;;;;;;;13.20;11.83;;;-2.00;99.90;;;-1.17;72.65;98719.53;5204040;28;20232;-60
2022/03/02 01:48:41;;;;;;;13.57;12.17;;;-2.00;99.90;;;-1.13;73.17;98716.66;5203313;28;20697;-60
2022/03/02 01:51:15;;;;;;;12.13;11.10;;;-2.00;99.90;;;-1.08;71.98;98714.69;5201956;28;20194;-59
2022/03/02 01:53:49;;;;;;;14.17;11.97;;;-2.00;99.90;;;-1.18;71.91;98711.81;5201344;28;20198;-61
2022/03/02 01:56:22;;;;;;;14.47;13.03;;;-2.00;99.90;;;-1.27;72.15;98705.75;5203103;28;20202;-60
2022/03/02 01:58:55;;;;;;;14.20;12.63;;;-2.00;99.90;;;-1.22;73.26;98699.66;5203766;28;20224;-57
2022/03/02 02:01:29;;;;;;;15.10;13.53;;;-2.00;99.90;;;-1.20;72.11;98694.09;5202946;28;20202;-60
2022/03/02 02:04:04;;;;;;;13.43;12.20;;;-1.90;99.90;;;-1.15;72.26;98692.09;5204414;28;20293;-60
2022/03/02 02:06:37;;;;;;;14.43;13.03;;;-1.90;99.90;;;-1.15;72.71;98698.00;5200763;28;20222;-60
2022/03/02 02:09:10;;;;;;;13.43;12.07;;;-1.90;99.90;;;-1.14;73.43;98688.91;5202771;28;20595;-59
2022/03/02 02:11:43;;;;;;;14.40;12.83;;;-1.80;99.90;;;-1.12;72.62;98687.44;5202463;28;20212;-60
2022/03/02 02:14:17;;;;;;;14.73;12.43;;;-1.80;99.90;;;-1.17;73.18;98679.41;5204916;28;20208;-59
2022/03/02 02:16:50;;;;;;;13.07;11.47;;;-1.90;99.90;;;-1.23;72.49;98677.78;5202957;28;20224;-59
2022/03/02 02:19:24;;;;;;;13.50;12.20;;;-2.00;99.90;;;-1.17;71.81;98678.53;5203804;28;20730;-58
2022/03/02 02:21:59;;;;;;;14.77;13.27;;;-1.90;99.90;;;-1.16;70.68;98680.31;5202481;28;20296;-59
2022/03/02 02:24:32;;;;;;;14.00;12.60;;;-1.90;99.90;;;-1.12;70.38;98677.41;5202436;28;20193;-59
2022/03/02 02:27:05;;;;;;;15.30;13.70;;;-1.90;99.90;;;-1.20;71.29;98683.19;5202789;28;20217;-60
2022/03/02 02:29:39;;;;;;;15.00;13.50;;;-1.90;99.90;;;-1.25;70.30;98659.19;5202630;28;20653;-60
2022/03/02 02:32:13;;;;;;;14.93;13.43;;;-1.90;99.90;;;-1.25;70.81;98662.59;5204129;28;20202;-60
2022/03/02 02:34:46;;;;;;;16.10;14.50;;;-1.90;99.90;;;-1.22;71.28;98659.53;5202370;28;20213;-59
2022/03/02 02:37:21;;;;;;;15.37;13.77;;;-2.00;99.90;;;-1.16;71.37;98655.22;5204969;28;20329;-59
2022/03/02 02:39:59;;;;;;;16.87;14.60;;;-1.90;99.90;;;-1.23;72.01;98653.63;5207282;28;20272;-60
2022/03/02 02:42:33;;;;;;;16.20;14.50;;;-1.90;99.90;;;-1.16;72.46;98641.06;5202169;28;20216;-60
2022/03/02 02:45:07;;;;;;;14.97;13.50;;;-1.80;99.90;;;-1.15;71.87;98641.94;5203937;28;20200;-60
2022/03/02 02:47:40;;;;;;;16.33;13.97;;;-1.80;99.90;;;-1.19;71.43;98628.19;5203929;28;20600;-59
2022/03/02 02:50:20;;;;;;;16.43;14.67;;;-1.90;99.90;;;-1.17;70.83;98623.34;5202065;28;20214;-60
2022/03/02 02:52:56;;;;;;;16.87;14.93;;;-1.90;99.90;;;-1.33;71.39;98624.81;5201026;28;20197;-59
2022/03/02 02:55:31;;;;;;;16.73;14.73;;;-2.00;99.90;;;-1.33;71.41;98623.19;5203272;28;20199;-59
2022/03/02 02:58:06;;;;;;;15.47;14.07;;;-2.00;99.90;;;-1.31;71.92;98615.88;5203164;28;20209;-59
2022/03/02 03:00:43;;;;;;;16.20;14.30;;;-2.00;99.90;;;-1.36;72.06;98618.72;5202561;28;20241;-58
2022/03/02 03:03:16;;;;;;;15.70;14.07;;;-2.00;99.90;;;-1.36;71.93;98606.19;5204026;28;20208;-60
2022/03/02 03:05:52;;;;;;;17.07;14.07;;;-2.00;99.90;;;-1.24;70.94;98611.69;5198691;28;20589;-59
2022/03/02 03:08:26;;;;;;;15.20;13.67;;;-1.90;99.90;;;-1.27;71.79;98602.94;5200506;28;20228;-60
2022/03/02 03:10:59;;;;;;;14.53;13.03;;;-1.90;99.90;;;-1.38;72.34;98607.63;5203702;28;20579;-59
2022/03/02 03:13:33;;;;;;;19.10;15.23;;;-2.00;99.90;;;-1.42;71.47;98609.63;5204018;28;20206;-60
2022/03/02 03:16:07;;;;;;;15.87;14.17;;;-2.00;99.90;;;-1.39;72.80;98600.81;5202210;28;20198;-59
2022/03/02 03:18:40;;;;;;;14.57;13.07;;;-2.00;99.90;;;-1.38;71.19;98596.69;5202206;28;20221;-59
2022/03/02 03:21:13;;;;;;;15.20;13.67;;;-2.10;99.90;;;-1.36;71.50;98603.69;5201377;28;20216;-59
2022/03/02 03:23:48;;;;;;;16.50;14.30;;;-2.00;99.90;;;-1.30;71.26;98605.09;5201007;28;20507;-61
2022/03/02 03:26:21;;;;;;;18.77;15.60;;;-2.00;99.90;;;-1.30;71.47;98600.09;5203636;28;20632;-60
2022/03/02 03:28:54;;;;;;;17.63;15.93;;;-2.00;99.90;;;-1.22;70.82;98606.88;5201359;28;20296;-60
2022/03/02 03:31:27;;;;;;;19.53;15.90;;;-1.90;99.90;;;-1.27;71.38;98606.34;5202152;28;20198;-60
2022/03/02 03:34:01;;;;;;;16.90;15.13;;;-1.90;99.90;;;-1.28;72.13;98608.69;5200471;28;20210;-60
2022/03/02 03:36:34;;;;;;;17.83;14.83;;;-1.90;99.90;;;-1.29;71.78;98611.91;5201895;28;20782;-61
2022/03/02 03:39:08;;;;;;;16.10;14.37;;;-1.90;99.90;;;-1.27;72.49;98611.34;5201310;28;20221;-61
2022/03/02 03:41:41;;;;;;;15.63;14.07;;;-1.90;99.90;;;-1.26;71.19;98608.16;5199836;28;20198;-61
2022/03/02 03:44:14;;;;;;;17.27;15.17;;;-1.90;99.90;;;-1.22;71.24;98614.41;5202876;28;20204;-59
2022/03/02 03:46:48;;;;;;;16.93;14.63;;;-1.90;99.90;;;-1.21;71.88;98622.06;5201975;28;20289;-60
2022/03/02 03:49:21;;;;;;;16.90;15.20;;;-1.80;99.90;;;-1.14;73.12;98624.59;5200180;28;20224;-59
2022/03/02 03:51:54;;;;;;;18.00;15.00;;;-1.80;99.90;;;-1.12;72.83;98632.25;5203118;28;20212;-59
2022/03/02 03:54:28;;;;;;;17.10;15.30;;;-1.80;99.90;;;-1.02;71.73;98630.09;5203488;28;20200;-56
2022/03/02 03:57:02;;;;;;;14.70;13.30;;;-1.80;99.90;;;-0.94;71.59;98626.84;5201927;28;20204;-60
2022/03/02 03:59:35;;;;;;;16.87;15.03;;;-1.90;99.90;;;-0.90;71.64;98630.59;5203837;28;20201;-59
2022/03/02 04:02:08;;;;;;;16.23;14.53;;;-2.00;99.90;;;-1.08;71.40;98623.50;5202579;28;20201;-59
2022/03/02 04:04:41;;;;;;;15.33;13.73;;;-2.10;99.90;;;-1.17;72.50;98625.84;5200066;28;20576;-59
2022/03/02 04:07:14;;;;;;;18.03;14.50;;;-2.10;99.90;;;-1.24;73.15;98625.84;5190196;28;20671;-59
2022/03/02 04:09:49;;;;;;;17.33;15.27;;;-2.10;99.90;;;-1.32;73.23;98621.56;5203991;28;20256;-58
2022/03/02 04:12:23;;;;;;;17.93;15.10;;;-2.10;99.90;;;-1.39;73.50;98615.88;5203861;28;20576;-59
2022/03/02 04:14:56;;;;;;;17.27;14.47;;;-2.20;99.90;;;-1.44;73.55;98613.56;5200352;28;20202;-58
2022/03/02 04:17:29;;;;;;;14.57;13.10;;;-2.20;99.90;;;-1.49;72.56;98612.13;5203672;28;20231;-59
2022/03/02 04:20:03;;;;;;;14.87;13.30;;;-2.30;99.90;;;-1.57;73.52;98601.22;5206307;28;20197;-60
2022/03/02 04:22:36;;;;;;;14.97;13.47;;;-2.30;99.90;;;-1.56;72.30;98603.00;5205148;28;20207;-60
2022/03/02 04:25:11;;;;;;;16.60;13.87;;;-2.30;99.90;;;-1.69;73.00;98590.69;5206779;28;20197;-60
2022/03/02 04:27:44;;;;;;;15.13;13.53;;;-2.40;99.90;;;-1.65;74.53;98585.31;5207707;28;20685;-60
2022/03/02 04:30:18;;;;;;;14.90;13.13;;;-2.40;99.90;;;-1.67;74.25;98583.34;5205742;28;20205;-60
2022/03/02 04:32:51;;;;;;;15.60;14.10;;;-2.40;99.90;;;-1.64;74.49;98587.09;5205256;28;20211;-58
2022/03/02 04:35:25;;;;;;;15.47;13.87;;;-2.40;99.90;;;-1.62;73.05;98584.75;5200304;28;20654;-59
2022/03/02 04:37:58;;;;;;;15.37;13.77;;;-2.40;99.90;;;-1.60;75.10;98579.22;5202928;28;20224;-60
2022/03/02 04:40:33;;;;;;;16.20;14.70;;;-2.30;99.90;;;-1.62;75.02;98584.75;5207091;28;20202;-58
2022/03/02 04:43:06;;;;;;;15.73;14.07;;;-2.30;99.90;;;-1.61;75.16;98576.53;5205642;28;20657;-59
2022/03/02 04:45:39;;;;;;;14.97;13.43;;;-2.30;99.90;;;-1.55;73.98;98577.22;5205162;28;20206;-60
2022/03/02 04:48:13;;;;;;;15.63;13.33;;;-2.30;99.90;;;-1.57;73.73;98573.66;5206336;28;20222;-59
2022/03/02 04:50:46;;;;;;;15.20;13.77;;;-2.30;99.90;;;-1.62;73.73;98575.63;5203320;28;20198;-59
2022/03/02 04:53:23;;;;;;;15.87;14.20;;;-2.30;99.90;;;-1.60;73.62;98575.81;5204409;28;20198;-60
2022/03/02 04:55:57;;;;;;;14.63;13.07;;;-2.30;99.90;;;-1.58;74.72;98570.25;5205906;28;20208;-60
2022/03/02 04:58:30;;;;;;;15.73;14.23;;;-2.30;99.90;;;-1.59;74.00;98570.09;5205373;28;20213;-60
2022/03/02 05:01:04;;;;;;;14.33;12.93;;;-2.40;99.90;;;-1.61;73.85;98571.50;5203402;28;20198;-59
2022/03/02 05:03:37;;;;;;;14.93;13.43;;;-2.40;99.90;;;-1.61;74.43;98569.00;5204495;28;20205;-59
2022/03/02 05:06:10;;;;;;;14.83;13.27;;;-2.50;99.90;;;-1.63;74.07;98572.94;5203602;28;20201;-60
2022/03/02 05:08:43;;;;;;;15.97;13.67;;;-2.40;99.90;;;-1.66;74.37;98567.56;5200294;28;20227;-59
2022/03/02 05:11:18;;;;;;;13.23;11.90;;;-2.40;99.90;;;-1.70;74.37;98565.44;5205501;28;20210;-59
2022/03/02 05:13:51;;;;;;;14.17;12.87;;;-2.50;99.90;;;-1.71;74.76;98568.69;5205042;28;20197;-60
2022/03/02 05:16:24;;;;;;;13.57;12.30;;;-2.60;99.90;;;-1.73;74.03;98565.09;5204599;28;20680;-58
2022/03/02 05:18:57;;;;;;;13.40;12.10;;;-2.60;99.90;;;-1.76;74.44;98558.13;5203750;28;20225;-59
2022/03/02 05:21:30;;;;;;;14.37;12.87;;;-2.60;99.90;;;-1.78;75.29;98563.66;5203103;28;20531;-58
2022/03/02 05:24:04;;;;;;;14.87;13.33;;;-2.60;99.90;;;-1.77;74.77;98566.38;5203457;28;20209;-59
2022/03/02 05:26:39;;;;;;;15.00;13.70;;;-2.60;99.90;;;-1.74;74.88;98573.34;5205387;28;20219;-60
2022/03/02 05:29:12;;;;;;;15.30;13.83;;;-2.50;99.90;;;-1.81;74.38;98571.72;5204184;28;20233;-61
2022/03/02 05:31:45;;;;;;;14.00;12.63;;;-2.60;99.90;;;-1.83;74.05;98566.53;5201838;28;20200;-60
2022/03/02 05:34:18;;;;;;;15.73;14.20;;;-2.60;99.90;;;-1.88;74.63;98565.13;5202234;28;20717;-62
2022/03/02 05:36:51;;;;;;;14.83;13.37;;;-2.60;99.90;;;-1.84;74.35;98557.22;5199552;28;20288;-60
2022/03/02 05:39:24;;;;;;;14.10;12.77;;;-2.50;99.90;;;-1.81;73.91;98557.56;5205648;28;20287;-60
2022/03/02 05:41:59;;;;;;;14.33;12.93;;;-2.50;99.90;;;-1.78;73.63;98566.16;5203869;28;20210;-60
2022/03/02 05:44:33;;;;;;;14.03;12.63;;;-2.60;99.90;;;-1.81;73.16;98567.59;5200612;28;20197;-60
2022/03/02 05:47:07;;;;;;;15.07;13.03;;;-2.50;99.90;;;-1.83;73.71;98561.53;5204762;28;20220;-61
2022/03/02 05:49:41;;;;;;;15.10;13.43;;;-2.60;99.90;;;-1.83;74.30;98564.03;5203447;28;20225;-60
2022/03/02 05:52:14;;;;;;;15.30;13.67;;;-2.60;99.90;;;-1.84;74.07;98564.75;5203787;28;20210;-62
2022/03/02 05:54:47;;;;;;;15.90;14.17;;;-2.60;99.90;;;-1.73;74.17;98565.97;5203057;28;20198;-61
2022/03/02 05:57:22;;;;;;;16.73;14.37;;;-2.50;99.90;;;-1.78;74.53;98566.16;5204164;28;20957;-61
2022/03/02 05:59:55;;;;;;;19.23;14.47;;;-2.50;99.90;;;-1.83;74.07;98566.53;5203887;28;20206;-61
2022/03/02 06:02:28;;;;;;;15.63;13.90;;;-2.50;99.90;;;-1.81;75.98;98562.59;5204911;28;20206;-60
2022/03/02 06:05:01;;;;;;;17.03;15.33;;;-2.40;99.90;;;-1.82;75.40;98559.91;5202622;28;20206;-61
2022/03/02 06:07:34;;;;;;;20.50;18.30;;;-2.40;99.90;;;-1.78;74.86;98556.16;5204928;28;20705;-61
2022/03/02 06:10:09;;;;;;;15.77;13.83;;;-2.40;99.90;;;-1.76;74.49;98557.22;5200679;28;20218;-61
2022/03/02 06:12:44;;;;;;;15.60;13.97;;;-2.40;99.90;;;-1.69;75.42;98555.63;5201879;28;20201;-59
2022/03/02 06:15:18;;;;;;;15.80;14.10;;;-2.40;99.90;;;-1.64;76.29;98558.63;5204069;28;20208;-58
2022/03/02 06:17:52;;;;;;;14.53;13.10;;;-2.30;99.90;;;-1.54;74.81;98555.59;5206242;28;20599;-60
2022/03/02 06:20:25;;;;;;;17.20;15.03;;;-2.30;99.90;;;-1.50;74.93;98556.09;5203951;28;20193;-60
2022/03/02 06:22:59;;;;;;;16.33;14.63;;;-2.20;99.90;;;-1.47;74.04;98551.41;5201001;28;20583;-59
2022/03/02 06:25:34;;;;;;;16.87;15.13;;;-2.20;99.90;;;-1.46;74.58;98547.28;5200841;28;20666;-59
2022/03/02 06:28:10;;;;;;;16.73;13.87;;;-2.10;99.90;;;-1.42;73.71;98544.44;5199739;28;20248;-60
2022/03/02 06:30:43;;;;;;;15.47;13.53;;;-2.30;99.90;;;-1.46;74.29;98540.69;5203485;28;20205;-60
2022/03/02 06:33:19;;;;;;;15.67;14.10;;;-2.20;99.90;;;-1.41;73.88;98541.19;5203942;28;20201;-58
2022/03/02 06:35:56;;;;;;;14.83;13.30;;;-2.20;99.90;;;-1.38;72.98;98546.56;5205235;28;20208;-62
2022/03/02 06:38:30;;;;;;;16.30;13.77;;;-2.10;99.90;;;-1.31;73.51;98543.16;5200115;28;20562;-57
2022/03/02 06:41:05;;;;;;;16.00;14.37;;;-2.00;99.90;;;-1.18;73.66;98548.81;5202134;28;20681;-60
2022/03/02 06:43:49;;;;;;;14.57;12.77;;;-1.90;99.90;;;-1.16;72.21;98547.38;5206017;28;20708;-59
2022/03/02 06:46:32;;;;;;;14.30;12.33;;;-1.90;99.90;;;-1.14;73.25;98548.47;5204973;28;20435;-58
2022/03/02 06:49:13;;;;;;;14.00;12.63;;;-1.90;99.90;;;-1.10;71.51;98545.56;5202017;28;20289;-58
2022/03/02 06:51:48;;;;;;;15.37;13.63;;;-1.80;99.90;;;-1.00;72.54;98528.31;5204607;28;20193;-57
2022/03/02 06:54:27;;;;;;;14.57;13.23;;;-1.90;99.90;;;-1.05;71.76;98536.94;5205385;28;20220;-58
2022/03/02 06:57:03;;;;;;;14.07;12.57;;;-1.90;99.90;;;-0.74;71.00;98532.84;5206923;28;20206;-58
2022/03/02 06:59:41;;;;;;;14.23;12.93;;;-1.70;99.90;;;-0.81;72.19;98530.34;5199029;28;20642;-58
2022/03/02 07:02:22;;;;;;;13.40;12.07;;;-1.50;99.90;;;-0.76;71.99;98529.25;5197044;28;20201;-58
2022/03/02 07:04:56;;;;;;;13.83;12.40;;;-1.50;99.90;;;-0.63;73.19;98532.41;5200612;28;20197;-58
2022/03/02 07:07:30;;;;;;;14.73;13.03;;;-1.30;99.90;;;-0.50;71.03;98535.53;5192170;28;20229;-58
2022/03/02 07:10:04;;;;;;;15.47;13.83;;;-1.20;99.90;;;-0.42;70.90;98538.91;5202927;28;20206;-55
2022/03/02 07:12:38;;;;;;;15.93;14.43;;;-1.10;99.90;;;-0.34;70.85;98548.16;5198203;28;20194;-58
2022/03/02 07:15:13;;;;;;;14.70;13.13;;;-1.10;99.90;;;-0.19;69.51;98543.91;5205069;28;20202;-58
2022/03/02 07:17:46;;;;;;;15.20;13.70;;;-1.00;99.90;;;-0.12;70.00;98541.34;5203784;28;20221;-59
2022/03/02 07:20:19;;;;;;;15.93;13.67;;;-0.90;99.90;;;-0.04;68.85;98550.59;5203783;28;20198;-58
2022/03/02 07:22:55;;;;;;;15.50;13.83;;;-0.80;99.90;;;0.07;69.12;98541.72;5204729;28;20206;-58
2022/03/02 07:25:31;;;;;;;15.33;13.83;;;-0.80;99.90;;;0.19;68.65;98544.66;5198771;28;20576;-58
2022/03/02 07:28:04;;;;;;;14.83;13.43;;;-0.60;99.90;;;0.27;69.25;98538.84;5202248;28;20304;-59
2022/03/02 07:30:40;;;;;;;15.83;13.43;;;-0.50;99.90;;;0.48;68.76;98531.78;5201981;28;20240;-59
2022/03/02 07:33:16;;;;;;;15.57;13.93;;;-0.30;99.90;;;0.41;68.28;98532.78;5195235;28;20224;-58
2022/03/02 07:35:57;;;;;;;16.20;14.37;;;-0.30;99.90;;;0.52;67.46;98529.78;5201596;28;20296;-58
2022/03/02 07:38:32;;;;;;;15.30;13.73;;;-0.30;99.90;;;0.63;68.41;98535.94;5205079;28;20806;-58
2022/03/02 07:41:08;;;;;;;17.07;15.27;;;-0.10;99.90;;;0.74;67.53;98537.06;5202124;28;20230;-58
2022/03/02 07:43:41;;;;;;;16.90;14.87;;;0.00;99.90;;;0.95;67.37;98530.91;5204750;28;20202;-58
2022/03/02 07:46:16;;;;;;;16.37;14.73;;;0.20;99.90;;;1.11;66.38;98531.75;5203125;28;20202;-59
2022/03/02 07:48:49;;;;;;;15.73;14.13;;;0.30;99.90;;;1.20;66.65;98529.28;5203362;28;20575;-59
2022/03/02 07:51:23;;;;;;;16.30;14.57;;;0.40;99.90;;;1.29;66.03;98536.19;5200298;28;20245;-56
2022/03/02 07:54:03;;;;;;;16.70;14.83;;;0.40;99.90;;;1.22;66.81;98532.88;5194302;28;20665;-59
2022/03/02 07:56:36;;;;;;;17.10;14.53;;;0.50;99.90;;;1.39;66.30;98532.97;5198756;28;20202;-56
2022/03/02 07:59:09;;;;;;;17.40;15.53;;;0.60;99.90;;;1.49;66.05;98532.31;5205104;28;20698;-59
2022/03/02 08:01:48;;;;;;;15.50;14.03;;;0.70;99.90;;;1.64;65.32;98533.88;5205743;28;20201;-59
2022/03/02 08:04:24;;;;;;;16.20;14.67;;;0.80;99.90;;;1.67;65.66;98536.69;5205483;28;20192;-57
2022/03/02 08:06:57;;;;;;;15.87;14.20;;;0.90;99.90;;;1.89;65.00;98539.78;5209342;28;20208;-58
2022/03/02 08:09:31;;;;;;;15.30;13.70;;;1.10;99.90;;;2.07;64.06;98537.31;5203894;28;20221;-59
2022/03/02 08:12:07;;;;;;;16.27;14.73;;;1.20;99.90;;;2.23;63.49;98533.97;5196503;28;20207;-59
2022/03/02 08:14:43;;;;;;;17.60;15.87;;;1.30;99.90;;;2.38;62.58;98542.16;5198729;28;20201;-58
2022/03/02 08:17:19;;;;;;;17.17;15.57;;;1.40;99.90;;;2.49;62.55;98538.19;5204234;28;20225;-59
2022/03/02 08:19:52;;;;;;;19.03;16.47;;;1.50;99.90;;;2.51;62.13;98536.69;5203438;28;20205;-59
2022/03/02 08:22:26;;;;;;;18.13;16.43;;;1.60;99.90;;;2.55;62.16;98536.25;5190673;28;20204;-59
2022/03/02 08:25:07;;;;;;;18.47;16.67;;;1.50;99.90;;;2.61;62.46;98529.28;5204275;28;20217;-59
2022/03/02 08:27:43;;;;;;;17.77;15.90;;;1.60;99.90;;;2.69;61.19;98532.59;5205602;28;20226;-58
2022/03/02 08:30:16;;;;;;;16.40;14.80;;;1.60;99.90;;;2.56;60.03;98525.41;5200933;28;20209;-58
2022/03/02 08:32:51;;;;;;;16.37;14.40;;;1.70;99.80;;;2.67;58.75;98534.94;5197550;28;20210;-59
2022/03/02 08:35:25;;;;;;;15.97;14.37;;;1.80;99.00;;;2.72;60.11;98527.84;5203526;28;20377;-59
2022/03/02 08:37:58;;;;;;;15.57;13.83;;;1.80;99.50;;;2.84;59.80;98518.91;5204276;28;20220;-58
2022/03/02 08:40:31;;;;;;;16.07;14.47;;;2.00;99.20;;;2.86;59.05;98519.06;5204208;28;20203;-58
2022/03/02 08:43:06;;;;;;;15.93;14.43;;;2.00;99.00;;;2.90;59.18;98519.50;5201472;28;20289;-59
2022/03/02 08:45:39;;;;;;;13.87;12.30;;;2.00;99.40;;;3.04;58.50;98507.34;5193663;28;20604;-59
2022/03/02 08:48:16;;;;;;;14.67;13.17;;;2.10;98.90;;;3.19;58.96;98502.88;5199603;28;20226;-59
2022/03/02 08:50:51;;;;;;;13.10;11.90;;;2.20;98.80;;;3.21;57.79;98502.28;5203833;28;20206;-59
2022/03/02 08:53:26;;;;;;;14.23;12.63;;;2.30;97.70;;;3.26;58.68;98501.09;5193516;28;20190;-59
2022/03/02 08:56:01;;;;;;;14.03;12.63;;;2.30;98.70;;;3.36;57.10;98498.66;5199249;28;20229;-58
2022/03/02 08:58:36;;;;;;;14.77;13.33;;;2.40;97.30;;;3.43;57.69;98497.59;5202709;28;20226;-59
2022/03/02 09:01:13;;;;;;;15.13;13.73;;;2.50;98.10;;;3.53;57.00;98496.84;5204270;28;20669;-57
2022/03/02 09:03:53;;;;;;;17.90;15.80;;;2.70;97.90;;;3.51;58.57;98499.22;5204807;28;20208;-59
2022/03/02 09:06:28;;;;;;;14.07;12.77;;;2.80;98.10;;;3.88;56.39;98496.72;5207620;28;20207;-57
2022/03/02 09:09:01;;;;;;;12.83;11.63;;;3.10;97.00;;;4.17;54.85;98502.81;5201260;28;20229;-59
2022/03/02 09:11:34;;;;;;;12.57;11.30;;;3.30;96.30;;;4.52;54.33;98497.56;5196896;28;20215;-59
2022/03/02 09:14:08;;;;;;;12.57;11.30;;;3.70;95.70;;;4.69;53.60;98492.41;5206593;28;20652;-59
2022/03/02 09:16:41;;;;;;;13.50;12.20;;;3.90;95.00;;;4.72;53.10;98477.47;5207270;28;20230;-56
2022/03/02 09:19:15;;;;;;;13.23;11.83;;;4.00;95.10;;;5.05;52.50;98478.69;5197326;28;20592;-59
2022/03/02 09:21:49;;;;;;;12.77;11.57;;;4.30;94.60;;;5.15;51.37;98488.88;5204640;28;20655;-59
2022/03/02 09:24:22;;;;;;;13.77;12.37;;;4.40;93.50;;;5.14;51.40;98486.19;5203731;28;20673;-59
2022/03/02 09:26:56;;;;;;;13.87;12.57;;;4.40;93.10;;;5.43;50.71;98484.53;5203130;28;20202;-58
2022/03/02 09:29:32;;;;;;;14.07;12.77;;;4.80;92.90;;;5.71;49.49;98491.13;5203517;28;20199;-59
2022/03/02 09:32:07;;;;;;;13.80;12.53;;;5.00;92.00;;;5.86;49.30;98487.34;5205565;28;20677;-59
2022/03/02 09:34:48;;;;;;;13.43;12.27;;;5.10;92.10;;;6.18;46.85;98476.53;5207381;28;20710;-59
2022/03/02 09:37:25;;;;;;;11.50;10.40;;;5.40;90.40;;;6.41;43.93;98470.81;5204003;28;20223;-60
2022/03/02 09:40:01;;;;;;;11.33;10.43;;;5.70;86.60;;;6.62;44.20;98470.06;5197053;28;20198;-59
2022/03/02 09:42:42;;;;;;;12.03;10.93;;;6.00;85.90;;;6.95;44.46;98471.03;5207473;28;20212;-60
2022/03/02 09:45:20;;;;;;;12.77;11.33;;;6.30;85.40;;;7.08;43.27;98466.19;5204771;28;20665;-60
2022/03/02 09:47:57;;;;;;;13.07;11.73;;;6.50;84.10;;;7.43;42.21;98456.25;5205362;28;20320;-59
2022/03/02 09:50:37;;;;;;;12.23;11.00;;;6.70;83.90;;;7.56;42.05;98458.13;5204647;28;20201;-59
2022/03/02 09:53:14;;;;;;;12.47;11.37;;;6.90;84.00;;;7.72;41.67;98469.47;5207171;28;20208;-58
2022/03/02 09:55:48;;;;;;;13.43;12.23;;;7.00;83.30;;;7.80;42.76;98458.25;5204390;28;20228;-59
2022/03/02 09:58:23;;;;;;;13.37;12.07;;;7.10;83.80;;;7.95;40.61;98449.22;5204242;28;20232;-60
2022/03/02 10:01:01;;;;;;;12.37;11.33;;;7.20;81.20;;;7.91;40.82;98457.41;5206670;28;20857;-59
2022/03/02 10:03:37;;;;;;;12.87;11.60;;;7.10;81.10;;;8.11;40.94;98449.63;5205973;28;20558;-58
2022/03/02 10:06:13;;;;;;;12.83;11.77;;;7.30;82.00;;;8.28;40.37;98450.91;5207521;28;20193;-59
2022/03/02 10:08:49;;;;;;;12.30;11.23;;;7.60;80.60;;;8.19;40.11;98442.59;5202658;28;20229;-60
2022/03/02 10:11:25;;;;;;;12.40;11.17;;;7.40;81.10;;;8.38;40.90;98442.28;5205315;28;20301;-60
2022/03/02 10:13:58;;;;;;;13.30;12.00;;;7.60;81.40;;;8.45;40.52;98431.84;5200212;28;20225;-60
2022/03/02 10:16:42;;;;;;;12.50;11.37;;;7.70;81.10;;;8.47;39.28;98440.50;5202619;28;20197;-61
2022/03/02 10:19:35;;;;;;;14.00;12.70;;;7.70;80.20;;;8.60;40.24;98433.75;5205658;28;20193;-61
2022/03/02 10:22:38;;;;;;;13.50;12.23;;;7.70;81.00;;;8.82;39.50;98432.00;5207398;28;20201;-60
2022/03/02 10:25:14;;;;;;;12.70;11.50;;;7.90;80.10;;;8.83;39.30;98430.34;5199827;28;20198;-61
2022/03/02 10:28:01;;;;;;;12.57;11.53;;;7.70;79.80;;;8.73;39.40;98436.44;5203577;28;20221;-61
2022/03/02 10:30:41;;;;;;;12.97;11.80;;;7.70;80.40;;;8.68;39.83;98417.38;5203934;28;20220;-59
2022/03/02 10:33:21;;;;;;;13.27;11.97;;;7.70;80.90;;;8.92;39.29;98429.31;5205007;28;20232;-61
2022/03/02 10:36:05;;;;;;;13.23;12.03;;;8.00;80.20;;;8.87;39.29;98429.78;5204327;28;20233;-59
2022/03/02 10:38:50;;;;;;;12.90;11.80;;;7.90;79.30;;;8.87;39.56;98419.56;5205501;28;20223;-59
2022/03/02 10:41:23;;;;;;;12.83;11.60;;;8.10;80.60;;;8.98;39.79;98418.69;5200252;28;20203;-60